Time;durP1;ratioP1;P1;durP2;ratioP2;P2;SDS_P1;SDS_P2;PMS_P1;PMS_P2;Temp;Humidity;BMP_temperature;BMP_pressure;BME280_temperature;BME280_humidity;BME280_pressure;Samples;Min_cycle;Max_cycle;Signal;HPM_P1;HPM_P2
2021/08/02 00:00:28;;;;;;;0.00;0.00;;;14.90;99.90;;;;;;4992401;28;20198;-68
2021/08/02 00:03:00;;;;;;;0.00;0.00;;;14.90;99.90;;;;;;4995817;28;20252;-67
2021/08/02 00:05:28;;;;;;;0.00;0.00;;;14.80;99.90;;;;;;4992803;28;20209;-73
2021/08/02 00:07:58;;;;;;;0.00;0.00;;;14.80;99.90;;;;;;4998187;28;20604;-68
2021/08/02 00:10:29;;;;;;;0.00;0.00;;;14.80;99.90;;;;;;5012280;28;20269;-67
2021/08/02 00:13:01;;;;;;;0.00;0.00;;;14.80;99.90;;;;;;4998133;28;20197;-67
2021/08/02 00:15:30;;;;;;;0.00;0.00;;;14.90;99.90;;;;;;4992241;28;20696;-67
2021/08/02 00:17:58;;;;;;;0.00;0.00;;;14.90;99.90;;;;;;4992515;28;20252;-67
2021/08/02 00:20:31;;;;;;;0.00;0.00;;;14.90;99.90;;;;;;4991872;28;20206;-67
2021/08/02 00:23:00;;;;;;;0.00;0.00;;;14.90;99.90;;;;;;5006256;28;20216;-68
2021/08/02 00:25:29;;;;;;;0.00;0.00;;;14.90;99.90;;;;;;5012309;28;20200;-67
2021/08/02 00:27:56;;;;;;;0.00;0.00;;;14.90;99.90;;;;;;5011007;28;20200;-68
2021/08/02 00:30:24;;;;;;;0.00;0.00;;;14.90;99.90;;;;;;5010980;28;20686;-68
2021/08/02 00:32:53;;;;;;;0.00;0.00;;;14.90;99.90;;;;;;4992371;28;20248;-68
2021/08/02 00:35:22;;;;;;;0.00;0.00;;;14.90;99.90;;;;;;4991904;28;20201;-67
2021/08/02 00:37:57;;;;;;;0.00;0.00;;;15.00;99.90;;;;;;4992317;28;20654;-67
2021/08/02 00:41:09;;;;;;;0.00;0.00;;;15.00;99.90;;;;;;4995168;28;20188;-68
2021/08/02 00:44:13;;;;;;;0.00;0.00;;;15.00;99.90;;;;;;4991845;28;20225;-71
2021/08/02 00:46:42;;;;;;;0.00;0.00;;;14.90;99.90;;;;;;4996235;28;20579;-68
2021/08/02 00:49:13;;;;;;;0.00;0.00;;;14.90;99.90;;;;;;5011762;28;20197;-67
2021/08/02 00:51:47;;;;;;;0.00;0.00;;;14.90;99.90;;;;;;5005677;28;20216;-67
2021/08/02 00:54:16;;;;;;;0.00;0.00;;;14.90;99.90;;;;;;5011475;28;20527;-70
2021/08/02 00:56:44;;;;;;;0.00;0.00;;;14.90;99.90;;;;;;4994875;28;20327;-69
2021/08/02 00:59:14;;;;;;;0.00;0.00;;;14.90;99.90;;;;;;4991810;28;20210;-68
2021/08/02 01:01:45;;;;;;;0.00;0.00;;;14.90;99.90;;;;;;4993579;28;20324;-68
2021/08/02 01:04:13;;;;;;;0.00;0.00;;;14.90;99.90;;;;;;4991788;28;20233;-68
2021/08/02 01:06:41;;;;;;;0.00;0.00;;;14.90;99.90;;;;;;4993195;28;20739;-68
2021/08/02 01:09:08;;;;;;;0.00;0.00;;;14.90;99.90;;;;;;5012121;28;20201;-69
2021/08/02 01:11:36;;;;;;;0.00;0.00;;;14.90;99.90;;;;;;5003200;28;20233;-68
2021/08/02 01:14:06;;;;;;;0.00;0.00;;;14.80;99.90;;;;;;4995475;28;20238;-70
2021/08/02 01:16:35;;;;;;;0.00;0.00;;;14.70;99.90;;;;;;4995806;28;20205;-70
2021/08/02 01:19:08;;;;;;;0.00;0.00;;;14.60;99.90;;;;;;4995506;28;20193;-71
2021/08/02 01:21:39;;;;;;;0.00;0.00;;;14.50;99.90;;;;;;4994796;28;20194;-68
2021/08/02 01:24:09;;;;;;;0.00;0.00;;;14.50;99.90;;;;;;4997818;28;20213;-69
2021/08/02 01:27:24;;;;;;;0.00;0.00;;;14.40;99.90;;;;;;5000345;28;20197;-69
2021/08/02 01:30:20;;;;;;;0.00;0.00;;;14.40;99.90;;;;;;4998490;28;20647;-68
2021/08/02 01:32:49;;;;;;;0.00;0.00;;;14.40;99.90;;;;;;5005257;28;20665;-72
2021/08/02 01:35:17;;;;;;;0.00;0.00;;;14.30;99.90;;;;;;5003901;28;20607;-68
2021/08/02 01:37:46;;;;;;;0.00;0.00;;;14.30;99.90;;;;;;5001081;28;20193;-69
2021/08/02 01:40:14;;;;;;;0.00;0.00;;;14.30;99.90;;;;;;4994564;28;20208;-69
2021/08/02 01:42:42;;;;;;;0.00;0.00;;;14.20;99.90;;;;;;4992659;28;20252;-67
2021/08/02 01:45:10;;;;;;;0.00;0.00;;;14.20;99.90;;;;;;5003035;28;20559;-68
2021/08/02 01:47:58;;;;;;;0.00;0.00;;;14.20;99.90;;;;;;5012944;28;20634;-68
2021/08/02 01:50:36;;;;;;;0.00;0.00;;;14.20;99.90;;;;;;5005043;28;20734;-77
2021/08/02 01:53:10;;;;;;;0.00;0.00;;;14.20;99.90;;;;;;4996331;28;20697;-70
2021/08/02 01:55:40;;;;;;;0.00;0.00;;;14.20;99.90;;;;;;4994703;28;20193;-68
2021/08/02 01:58:10;;;;;;;0.00;0.00;;;14.20;99.90;;;;;;4995581;28;20728;-69
2021/08/02 02:00:47;;;;;;;0.00;0.00;;;14.20;99.90;;;;;;5004276;28;20283;-67
2021/08/02 02:03:16;;;;;;;0.00;0.00;;;14.20;99.90;;;;;;5009578;28;20295;-68
2021/08/02 02:05:47;;;;;;;0.00;0.00;;;14.20;99.90;;;;;;5002981;28;20193;-73
2021/08/02 02:08:18;;;;;;;0.00;0.00;;;14.20;99.90;;;;;;5004266;28;20197;-70
2021/08/02 02:10:49;;;;;;;0.00;0.00;;;14.20;99.90;;;;;;5004422;28;20208;-73
2021/08/02 02:13:19;;;;;;;0.00;0.00;;;14.20;99.90;;;;;;4996865;28;20667;-67
2021/08/02 02:15:50;;;;;;;0.00;0.00;;;14.20;99.90;;;;;;4994522;28;20216;-70
2021/08/02 02:18:18;;;;;;;0.00;0.00;;;14.20;99.90;;;;;;5006783;28;20204;-67
2021/08/02 02:20:49;;;;;;;0.00;0.00;;;14.20;99.90;;;;;;4996791;28;20602;-68
2021/08/02 02:23:17;;;;;;;0.00;0.00;;;14.20;99.90;;;;;;4995703;28;20646;-69
2021/08/02 02:25:46;;;;;;;0.00;0.00;;;14.20;99.90;;;;;;4996533;28;20194;-69
2021/08/02 02:28:14;;;;;;;0.00;0.00;;;14.20;99.90;;;;;;4998054;28;20733;-68
2021/08/02 02:30:42;;;;;;;0.00;0.00;;;14.20;99.90;;;;;;5006553;28;20264;-69
2021/08/02 02:33:12;;;;;;;0.00;0.00;;;14.20;99.90;;;;;;5004675;28;20201;-69
2021/08/02 02:35:41;;;;;;;0.00;0.00;;;14.20;99.90;;;;;;5011903;28;20293;-68
2021/08/02 02:38:09;;;;;;;0.00;0.00;;;14.10;99.90;;;;;;5004856;28;20228;-69
2021/08/02 02:40:37;;;;;;;0.00;0.00;;;14.10;99.90;;;;;;4995494;28;20202;-67
2021/08/02 02:43:06;;;;;;;0.00;0.00;;;14.20;99.90;;;;;;5002779;28;20201;-71
2021/08/02 02:45:35;;;;;;;0.00;0.00;;;14.10;99.90;;;;;;5008033;28;20275;-70
2021/08/02 02:48:04;;;;;;;0.00;0.00;;;14.10;99.90;;;;;;4999443;28;20267;-68
2021/08/02 02:50:31;;;;;;;0.00;0.00;;;14.10;99.90;;;;;;4999940;28;20196;-69
2021/08/02 02:53:00;;;;;;;0.00;0.00;;;14.10;99.90;;;;;;4996691;28;20217;-69
2021/08/02 02:55:28;;;;;;;0.00;0.00;;;14.10;99.90;;;;;;4996668;28;20201;-67
2021/08/02 02:57:55;;;;;;;0.00;0.00;;;14.10;99.90;;;;;;5005817;28;20198;-68
2021/08/02 03:00:24;;;;;;;0.00;0.00;;;14.10;99.90;;;;;;4993904;28;20210;-68
2021/08/02 03:02:52;;;;;;;0.00;0.00;;;;;;;;;;4999936;28;20601;-68
2021/08/02 03:05:22;;;;;;;0.00;0.00;;;14.10;99.90;;;;;;4996987;28;20233;-72
2021/08/02 03:07:52;;;;;;;0.00;0.00;;;14.10;99.90;;;;;;4998722;28;20256;-67
2021/08/02 03:10:21;;;;;;;0.00;0.00;;;14.10;99.90;;;;;;4995451;28;20221;-70
2021/08/02 03:12:49;;;;;;;0.00;0.00;;;14.00;99.90;;;;;;5012737;28;20196;-71
2021/08/02 03:15:16;;;;;;;0.00;0.00;;;14.00;99.90;;;;;;5007332;28;20655;-68
2021/08/02 03:17:45;;;;;;;0.00;0.00;;;14.00;99.90;;;;;;4993080;28;20536;-68
2021/08/02 03:20:13;;;;;;;0.00;0.00;;;14.10;99.90;;;;;;4991911;28;20201;-68
2021/08/02 03:22:45;;;;;;;0.00;0.00;;;14.00;99.90;;;;;;4993328;28;20206;-72
2021/08/02 03:25:19;;;;;;;0.00;0.00;;;14.00;99.90;;;;;;4992773;28;20698;-67
2021/08/02 03:27:50;;;;;;;0.00;0.00;;;14.00;99.90;;;;;;4997144;28;20336;-70
2021/08/02 03:30:18;;;;;;;0.00;0.00;;;14.00;99.90;;;;;;5012175;28;20201;-67
2021/08/02 03:32:47;;;;;;;0.00;0.00;;;13.90;99.90;;;;;;5012769;28;20197;-67
2021/08/02 03:35:17;;;;;;;0.00;0.00;;;13.90;99.90;;;;;;5010392;28;20200;-67
2021/08/02 03:37:45;;;;;;;0.00;0.00;;;13.90;99.90;;;;;;5012531;28;20205;-67
2021/08/02 03:40:15;;;;;;;0.00;0.00;;;13.90;99.90;;;;;;5009379;28;20224;-67
2021/08/02 03:42:43;;;;;;;0.00;0.00;;;13.80;99.90;;;;;;4992998;28;20281;-67
2021/08/02 03:45:11;;;;;;;0.00;0.00;;;13.80;99.90;;;;;;4992736;28;20225;-67
2021/08/02 03:47:38;;;;;;;0.00;0.00;;;13.80;99.90;;;;;;5003127;28;20203;-66
2021/08/02 03:50:07;;;;;;;0.00;0.00;;;13.70;99.90;;;;;;5002251;28;20193;-67
2021/08/02 03:52:34;;;;;;;0.00;0.00;;;13.70;99.90;;;;;;5004108;28;20274;-66
2021/08/02 03:55:02;;;;;;;0.00;0.00;;;13.70;99.90;;;;;;5012123;28;20201;-67
2021/08/02 03:57:32;;;;;;;0.00;0.00;;;13.60;99.90;;;;;;4993556;28;20194;-66
2021/08/02 03:59:59;;;;;;;0.00;0.00;;;13.70;99.90;;;;;;4992629;28;20252;-67
2021/08/02 04:02:26;;;;;;;0.00;0.00;;;13.60;99.90;;;;;;4992109;28;20234;-67
2021/08/02 04:04:53;;;;;;;0.00;0.00;;;13.60;99.90;;;;;;4991973;28;20640;-67
2021/08/02 04:07:21;;;;;;;0.00;0.00;;;13.60;99.90;;;;;;4995334;28;20267;-67
2021/08/02 04:09:48;;;;;;;0.00;0.00;;;13.60;99.90;;;;;;4992347;28;20194;-66
2021/08/02 04:12:15;;;;;;;0.00;0.00;;;13.60;99.90;;;;;;5007072;28;20205;-67
2021/08/02 04:14:42;;;;;;;0.00;0.00;;;13.50;99.90;;;;;;5011263;28;20251;-69
2021/08/02 04:17:09;;;;;;;0.00;0.00;;;13.50;99.90;;;;;;5011899;28;20873;-66
2021/08/02 04:19:36;;;;;;;0.00;0.00;;;13.50;99.90;;;;;;5011722;28;20654;-66
2021/08/02 04:22:04;;;;;;;0.00;0.00;;;13.50;99.90;;;;;;5002161;28;20654;-66
2021/08/02 04:24:32;;;;;;;0.00;0.00;;;13.50;99.90;;;;;;5012089;28;20225;-66
2021/08/02 04:26:59;;;;;;;0.00;0.00;;;13.50;99.90;;;;;;5012190;28;20633;-66
2021/08/02 04:29:26;;;;;;;0.00;0.00;;;13.50;99.90;;;;;;5011744;28;20205;-66
2021/08/02 04:31:53;;;;;;;0.00;0.00;;;13.40;99.90;;;;;;5012032;28;20211;-66
2021/08/02 04:34:20;;;;;;;0.00;0.00;;;13.40;99.90;;;;;;5010136;28;20712;-67
2021/08/02 04:36:47;;;;;;;0.00;0.00;;;13.50;99.90;;;;;;5012162;28;20250;-67
2021/08/02 04:39:14;;;;;;;0.00;0.00;;;13.50;99.90;;;;;;5009050;28;20265;-66
2021/08/02 04:41:42;;;;;;;0.00;0.00;;;13.40;99.90;;;;;;4996269;28;20210;-68
2021/08/02 04:44:09;;;;;;;0.00;0.00;;;13.50;99.90;;;;;;5015850;28;20200;-66
2021/08/02 04:46:36;;;;;;;0.00;0.00;;;13.50;99.90;;;;;;5015663;28;20255;-66
2021/08/02 04:49:03;;;;;;;0.00;0.00;;;13.50;99.90;;;;;;5015183;28;20193;-66
2021/08/02 04:51:30;;;;;;;0.00;0.00;;;13.50;99.90;;;;;;5013610;28;20708;-67
2021/08/02 04:53:57;;;;;;;0.00;0.00;;;13.50;99.90;;;;;;5001562;28;20260;-67
2021/08/02 04:56:24;;;;;;;0.00;0.00;;;13.50;99.90;;;;;;4995923;28;20198;-66
2021/08/02 04:58:53;;;;;;;0.00;0.00;;;13.50;99.90;;;;;;4995885;28;20202;-67
2021/08/02 05:01:20;;;;;;;0.00;0.00;;;13.50;99.90;;;;;;5001663;28;20197;-67
2021/08/02 05:03:47;;;;;;;0.00;0.00;;;13.50;99.90;;;;;;4996206;28;20194;-66
2021/08/02 05:06:14;;;;;;;0.00;0.00;;;13.50;99.90;;;;;;5015172;28;20233;-66
2021/08/02 05:08:41;;;;;;;0.00;0.00;;;13.50;99.90;;;;;;4996595;28;20272;-66
2021/08/02 05:11:08;;;;;;;0.00;0.00;;;13.60;99.90;;;;;;5004550;28;20197;-66
2021/08/02 05:13:35;;;;;;;0.00;0.00;;;13.70;99.90;;;;;;5015188;28;20216;-67
2021/08/02 05:16:05;;;;;;;0.00;0.00;;;13.70;99.90;;;;;;5011657;28;20209;-66
2021/08/02 05:18:32;;;;;;;0.00;0.00;;;13.70;99.90;;;;;;4995408;28;20635;-66
2021/08/02 05:20:59;;;;;;;0.00;0.00;;;13.70;99.90;;;;;;4995325;28;20268;-66
2021/08/02 05:23:26;;;;;;;0.00;0.00;;;13.80;99.90;;;;;;4995424;28;20198;-67
2021/08/02 05:25:54;;;;;;;0.00;0.00;;;14.00;99.90;;;;;;5013382;28;20229;-67
2021/08/02 05:28:21;;;;;;;0.00;0.00;;;14.20;99.90;;;;;;5014805;28;20210;-68
2021/08/02 05:30:48;;;;;;;0.00;0.00;;;14.30;99.90;;;;;;5015654;28;20197;-66
2021/08/02 05:33:17;;;;;;;0.00;0.00;;;14.50;99.90;;;;;;5014485;28;20255;-67
2021/08/02 05:35:44;;;;;;;0.00;0.00;;;14.60;99.90;;;;;;5014436;28;20682;-66
2021/08/02 05:38:11;;;;;;;0.00;0.00;;;14.80;99.90;;;;;;5014610;28;20713;-67
2021/08/02 05:40:38;;;;;;;0.00;0.00;;;15.00;99.90;;;;;;4995220;28;20272;-67
2021/08/02 05:43:05;;;;;;;0.00;0.00;;;15.10;99.90;;;;;;5011241;28;20601;-67
2021/08/02 05:45:32;;;;;;;0.00;0.00;;;15.20;99.90;;;;;;5019180;28;20220;-73
2021/08/02 05:47:59;;;;;;;0.00;0.00;;;15.20;99.90;;;;;;5003674;28;21170;-67
2021/08/02 05:50:28;;;;;;;0.00;0.00;;;15.10;99.90;;;;;;5009838;28;20196;-67
2021/08/02 05:52:55;;;;;;;0.00;0.00;;;15.10;99.90;;;;;;5019886;28;20247;-67
2021/08/02 05:55:22;;;;;;;0.00;0.00;;;15.10;99.90;;;;;;5014509;28;20252;-66
2021/08/02 05:57:49;;;;;;;0.00;0.00;;;15.20;99.90;;;;;;5005385;28;20201;-70
2021/08/02 06:00:17;;;;;;;0.00;0.00;;;15.20;99.90;;;;;;4996809;28;20630;-70
2021/08/02 06:02:44;;;;;;;0.00;0.00;;;15.20;99.90;;;;;;4996698;28;20237;-68
2021/08/02 06:05:11;;;;;;;0.00;0.00;;;15.20;99.90;;;;;;4995243;28;20225;-67
2021/08/02 06:07:42;;;;;;;0.00;0.00;;;15.30;99.90;;;;;;4995276;28;20210;-66
2021/08/02 06:10:10;;;;;;;0.00;0.00;;;15.30;99.90;;;;;;4995130;28;20206;-67
2021/08/02 06:12:38;;;;;;;0.00;0.00;;;15.30;99.90;;;;;;4994896;28;20205;-66
2021/08/02 06:15:06;;;;;;;0.00;0.00;;;15.50;99.90;;;;;;4994299;28;20591;-66
2021/08/02 06:17:33;;;;;;;0.00;0.00;;;15.80;99.90;;;;;;4994123;28;20599;-67
2021/08/02 06:20:00;;;;;;;0.00;0.00;;;16.10;99.90;;;;;;4995339;28;20201;-68
2021/08/02 06:22:27;;;;;;;0.00;0.00;;;16.40;99.90;;;;;;4993985;28;20197;-66
2021/08/02 06:24:56;;;;;;;0.00;0.00;;;16.70;99.90;;;;;;4993708;28;20679;-67
2021/08/02 06:27:23;;;;;;;0.00;0.00;;;17.00;99.90;;;;;;4994237;28;20202;-67
2021/08/02 06:29:50;;;;;;;0.00;0.00;;;17.20;99.90;;;;;;4993339;28;20612;-68
2021/08/02 06:32:17;;;;;;;0.00;0.00;;;17.30;99.90;;;;;;5008967;28;20269;-69
2021/08/02 06:34:44;;;;;;;0.00;0.00;;;17.50;99.90;;;;;;4996691;28;20685;-67
2021/08/02 06:37:12;;;;;;;0.00;0.00;;;17.70;99.90;;;;;;4994511;28;20202;-68
2021/08/02 06:39:39;;;;;;;0.00;0.00;;;17.80;99.90;;;;;;4993641;28;20632;-68
2021/08/02 06:42:09;;;;;;;0.00;0.00;;;17.90;99.90;;;;;;4994011;28;20201;-68
2021/08/02 06:44:36;;;;;;;0.00;0.00;;;18.00;99.90;;;;;;4996547;28;20836;-67
2021/08/02 06:47:03;;;;;;;0.00;0.00;;;18.20;99.90;;;;;;4994743;28;20240;-68
2021/08/02 06:49:30;;;;;;;0.00;0.00;;;18.30;99.90;;;;;;4992207;28;20236;-67
2021/08/02 06:51:57;;;;;;;0.00;0.00;;;18.40;99.90;;;;;;4994141;28;20225;-67
2021/08/02 06:54:24;;;;;;;0.00;0.00;;;18.60;99.90;;;;;;4995426;28;20300;-67
2021/08/02 06:56:51;;;;;;;0.00;0.00;;;18.60;99.90;;;;;;4992068;28;20214;-68
2021/08/02 06:59:19;;;;;;;0.00;0.00;;;18.70;99.90;;;;;;4996432;28;20329;-67
2021/08/02 07:01:46;;;;;;;0.00;0.00;;;18.90;99.90;;;;;;5017812;28;20228;-67
2021/08/02 07:04:13;;;;;;;0.00;0.00;;;19.00;99.90;;;;;;5028356;28;20215;-67
2021/08/02 07:06:41;;;;;;;0.00;0.00;;;18.90;99.90;;;;;;5012670;28;20698;-67
2021/08/02 07:09:08;;;;;;;0.00;0.00;;;18.80;99.90;;;;;;5012818;28;20200;-67
2021/08/02 07:11:35;;;;;;;0.00;0.00;;;18.50;99.90;;;;;;5014282;28;20588;-67
2021/08/02 07:14:02;;;;;;;0.00;0.00;;;18.30;99.90;;;;;;5005709;28;20205;-67
2021/08/02 07:16:31;;;;;;;0.00;0.00;;;18.20;99.90;;;;;;4992867;28;20205;-68
2021/08/02 07:18:58;;;;;;;0.00;0.00;;;18.20;99.90;;;;;;4993339;28;20197;-67
2021/08/02 07:21:25;;;;;;;0.00;0.00;;;18.50;99.90;;;;;;4994178;28;20214;-71
2021/08/02 07:23:52;;;;;;;0.00;0.00;;;18.80;99.90;;;;;;5012624;28;20296;-67
2021/08/02 07:26:19;;;;;;;0.00;0.00;;;19.00;99.90;;;;;;4995863;28;20233;-68
2021/08/02 07:28:46;;;;;;;0.00;0.00;;;18.80;99.90;;;;;;4993360;28;20209;-67
2021/08/02 07:31:15;;;;;;;0.00;0.00;;;18.70;99.90;;;;;;4992870;28;20194;-68
2021/08/02 07:33:43;;;;;;;0.00;0.00;;;18.60;99.90;;;;;;4998886;28;20201;-70
2021/08/02 07:36:10;;;;;;;0.00;0.00;;;18.60;99.90;;;;;;4991729;28;20213;-67
2021/08/02 07:38:38;;;;;;;0.00;0.00;;;18.90;99.90;;;;;;4992740;28;20205;-67
2021/08/02 07:41:05;;;;;;;0.00;0.00;;;18.90;99.90;;;;;;4993054;28;20276;-68
2021/08/02 07:43:32;;;;;;;0.00;0.00;;;18.70;99.90;;;;;;4993005;28;20209;-67
2021/08/02 07:45:59;;;;;;;0.00;0.00;;;18.70;99.90;;;;;;4989862;28;20241;-67
2021/08/02 07:48:26;;;;;;;0.00;0.00;;;18.70;99.90;;;;;;4996192;28;20204;-67
2021/08/02 07:50:55;;;;;;;0.00;0.00;;;18.70;99.90;;;;;;4991515;28;20220;-74
2021/08/02 07:53:22;;;;;;;0.00;0.00;;;18.70;99.90;;;;;;4991703;28;20236;-68
2021/08/02 07:55:49;;;;;;;0.00;0.00;;;18.50;99.90;;;;;;4991676;28;20201;-68
2021/08/02 07:58:16;;;;;;;0.00;0.00;;;18.60;99.90;;;;;;4994241;28;20201;-67
2021/08/02 08:00:44;;;;;;;0.00;0.00;;;18.70;99.90;;;;;;4996086;28;20204;-68
2021/08/02 08:03:13;;;;;;;0.00;0.00;;;19.00;99.90;;;;;;4997682;28;20233;-67
2021/08/02 08:05:41;;;;;;;0.00;0.00;;;19.20;99.90;;;;;;4995793;28;20237;-79
2021/08/02 08:08:10;;;;;;;0.00;0.00;;;19.40;99.90;;;;;;4995077;28;20284;-74
2021/08/02 08:10:37;;;;;;;0.00;0.00;;;19.50;99.90;;;;;;4989349;28;20213;-67
2021/08/02 08:13:06;;;;;;;0.00;0.00;;;19.60;99.90;;;;;;4990513;28;20591;-67
2021/08/02 08:15:34;;;;;;;0.00;0.00;;;19.60;99.90;;;;;;4993966;28;21204;-68
2021/08/02 08:18:01;;;;;;;0.00;0.00;;;19.70;99.90;;;;;;4999593;28;20263;-69
2021/08/02 08:20:28;;;;;;;0.00;0.00;;;19.70;99.90;;;;;;5001077;28;20224;-67
2021/08/02 08:22:55;;;;;;;0.00;0.00;;;20.10;99.90;;;;;;5016194;28;20254;-68
2021/08/02 08:25:24;;;;;;;0.00;0.00;;;20.40;99.90;;;;;;5000302;28;20201;-69
2021/08/02 08:27:51;;;;;;;0.00;0.00;;;20.60;99.90;;;;;;4998043;28;20200;-82
2021/08/02 08:30:20;;;;;;;0.00;0.00;;;20.80;99.90;;;;;;5001732;28;20223;-73
2021/08/02 08:32:47;;;;;;;0.00;0.00;;;21.10;99.90;;;;;;4999954;28;20620;-78
2021/08/02 08:35:15;;;;;;;0.00;0.00;;;21.50;99.90;;;;;;4997947;28;20683;-69
2021/08/02 08:37:42;;;;;;;0.00;0.00;;;21.90;99.90;;;;;;5001440;28;20204;-86
2021/08/02 08:40:10;;;;;;;0.00;0.00;;;22.10;99.90;;;;;;5002541;28;20231;-84
2021/08/02 08:42:40;;;;;;;0.00;0.00;;;21.80;99.90;;;;;;5000804;28;20197;-84
2021/08/02 08:45:09;;;;;;;0.00;0.00;;;21.40;99.90;;;;;;4999833;28;20647;-79
2021/08/02 08:47:36;;;;;;;0.00;0.00;;;21.00;99.90;;;;;;5004546;28;20228;-68
2021/08/02 08:50:05;;;;;;;0.00;0.00;;;20.60;99.90;;;;;;4991477;28;20248;-67
2021/08/02 08:52:35;;;;;;;0.00;0.00;;;20.70;99.90;;;;;;4990034;28;20212;-68
2021/08/02 08:55:06;;;;;;;0.00;0.00;;;21.10;99.90;;;;;;4990513;28;20590;-73
2021/08/02 08:57:33;;;;;;;0.00;0.00;;;21.60;99.90;;;;;;4993178;28;20206;-74
2021/08/02 09:00:02;;;;;;;0.00;0.00;;;21.70;99.90;;;;;;4987573;28;20216;-67
2021/08/02 09:02:30;;;;;;;0.00;0.00;;;21.60;99.90;;;;;;4986311;28;20229;-75
2021/08/02 09:04:59;;;;;;;0.00;0.00;;;21.20;99.90;;;;;;4987495;28;20197;-66
2021/08/02 09:07:37;;;;;;;0.00;0.00;;;20.80;99.90;;;;;;4993372;28;20224;-68
2021/08/02 09:10:06;;;;;;;0.00;0.00;;;20.50;99.90;;;;;;4991078;28;20770;-69
2021/08/02 09:12:33;;;;;;;0.00;0.00;;;20.70;99.90;;;;;;4993295;28;20198;-67
2021/08/02 09:15:06;;;;;;;0.00;0.00;;;21.00;99.90;;;;;;4993223;28;20204;-67
2021/08/02 09:17:34;;;;;;;0.00;0.00;;;21.40;99.90;;;;;;4990811;28;20236;-68
2021/08/02 09:20:03;;;;;;;0.00;0.00;;;21.80;99.90;;;;;;4994006;28;20206;-67
2021/08/02 09:22:32;;;;;;;0.10;0.10;;;22.10;99.90;;;;;;4991918;28;20613;-66
2021/08/02 09:25:09;;;;;;;0.00;0.00;;;22.40;99.90;;;;;;4994564;28;20735;-69
2021/08/02 09:27:36;;;;;;;0.00;0.00;;;22.60;99.90;;;;;;4998848;28;20291;-66
2021/08/02 09:30:20;;;;;;;0.00;0.00;;;22.90;99.90;;;;;;4995089;28;20205;-66
2021/08/02 09:32:52;;;;;;;0.00;0.00;;;22.80;99.90;;;;;;4994020;28;20197;-67
2021/08/02 09:35:31;;;;;;;0.00;0.00;;;22.60;99.90;;;;;;4994687;28;20578;-70
2021/08/02 09:38:02;;;;;;;0.00;0.00;;;22.50;99.90;;;;;;5002860;28;20198;-71
2021/08/02 09:40:37;;;;;;;0.00;0.00;;;22.50;99.90;;;;;;5001431;28;20201;-67
2021/08/02 09:43:05;;;;;;;0.20;0.20;;;22.70;99.90;;;;;;4994898;28;20266;-67
2021/08/02 09:45:42;;;;;;;0.00;0.00;;;22.90;99.90;;;;;;4994138;28;20200;-67
2021/08/02 09:48:10;;;;;;;0.00;0.00;;;23.40;99.90;;;;;;4993956;28;20600;-68
2021/08/02 09:50:37;;;;;;;0.00;0.00;;;23.50;99.90;;;;;;4996214;28;20204;-67
2021/08/02 09:53:04;;;;;;;0.00;0.00;;;23.80;99.90;;;;;;4993567;28;20305;-68
2021/08/02 09:55:31;;;;;;;0.00;0.00;;;23.60;99.90;;;;;;5003048;28;20212;-67
2021/08/02 09:57:58;;;;;;;0.35;0.30;;;23.30;99.90;;;;;;5003982;28;20197;-67
2021/08/02 10:00:25;;;;;;;0.00;0.00;;;22.70;99.90;;;;;;4999971;28;20288;-66
2021/08/02 10:02:53;;;;;;;0.00;0.00;;;22.20;99.90;;;;;;4993076;28;20229;-66
2021/08/02 10:05:22;;;;;;;0.00;0.00;;;21.60;99.90;;;;;;4993788;28;20248;-66
2021/08/02 10:07:49;;;;;;;0.00;0.00;;;21.00;99.90;;;;;;4994036;28;20249;-67
2021/08/02 10:10:18;;;;;;;0.00;0.00;;;20.60;99.90;;;;;;4998250;28;20233;-68
2021/08/02 10:12:47;;;;;;;0.00;0.00;;;20.30;99.90;;;;;;4992879;28;20275;-76
2021/08/02 10:15:17;;;;;;;0.00;0.00;;;20.00;99.90;;;;;;4992156;28;20205;-72
2021/08/02 10:17:48;;;;;;;0.00;0.00;;;19.70;99.90;;;;;;4986954;28;20663;-66
2021/08/02 10:20:25;;;;;;;0.00;0.00;;;19.40;99.90;;;;;;4991366;28;20220;-65
2021/08/02 10:22:53;;;;;;;0.00;0.00;;;19.40;99.90;;;;;;4987417;28;20204;-74
2021/08/02 10:25:32;;;;;;;0.00;0.00;;;19.10;99.90;;;;;;4990797;28;20216;-66
2021/08/02 10:28:10;;;;;;;0.00;0.00;;;19.00;99.90;;;;;;4989790;28;20248;-66
2021/08/02 10:30:38;;;;;;;0.00;0.00;;;18.80;99.90;;;;;;4990462;28;20255;-72
2021/08/02 10:33:06;;;;;;;0.00;0.00;;;18.70;99.90;;;;;;4990875;28;20205;-66
2021/08/02 10:35:36;;;;;;;0.00;0.00;;;18.50;99.90;;;;;;4993294;28;20214;-65
2021/08/02 10:38:06;;;;;;;0.00;0.00;;;18.40;99.90;;;;;;4986610;28;20202;-67
2021/08/02 10:40:44;;;;;;;0.00;0.00;;;18.40;99.90;;;;;;4987663;28;20197;-66
2021/08/02 10:43:11;;;;;;;0.00;0.00;;;18.30;99.90;;;;;;4991040;28;20221;-71
2021/08/02 10:45:40;;;;;;;0.00;0.00;;;18.20;99.90;;;;;;4993481;28;20599;-65
